Time;durP1;ratioP1;P1;durP2;ratioP2;P2;SDS_P1;SDS_P2;PMS_P1;PMS_P2;Temp;Humidity;BMP_temperature;BMP_pressure;BME280_temperature;BME280_humidity;BME280_pressure;Samples;Min_cycle;Max_cycle;Signal;HPM_P1;HPM_P2
2022/06/28 00:01:41;;;;;;;8.27;6.70;;;19.40;99.90;;;;;;4990360;28;20185;-91
2022/06/28 00:04:07;;;;;;;9.00;6.55;;;19.40;99.90;;;;;;4989769;28;20286;-88
2022/06/28 00:06:34;;;;;;;8.88;6.90;;;19.30;99.90;;;;;;4993843;28;20211;-89
2022/06/28 00:08:59;;;;;;;8.20;6.88;;;19.30;99.90;;;;;;4994070;28;20204;-89
2022/06/28 00:11:29;;;;;;;7.22;6.45;;;19.30;99.90;;;;;;4995567;28;20538;-89
2022/06/28 00:13:55;;;;;;;7.40;6.57;;;19.30;99.90;;;;;;4993975;28;20184;-89
2022/06/28 00:16:21;;;;;;;7.70;6.53;;;19.20;99.90;;;;;;4993874;28;20191;-91
2022/06/28 00:18:49;;;;;;;10.15;7.25;;;19.10;99.90;;;;;;4994370;28;20231;-90
2022/06/28 00:21:14;;;;;;;8.48;7.57;;;19.10;99.90;;;;;;4992361;28;20266;-90
2022/06/28 00:23:42;;;;;;;8.60;6.55;;;19.10;99.90;;;;;;4990235;28;20565;-91
2022/06/28 00:26:10;;;;;;;7.85;7.05;;;19.00;99.90;;;;;;4992433;28;20596;-89
2022/06/28 00:28:37;;;;;;;8.65;7.75;;;19.00;99.90;;;;;;4976567;28;20264;-89
2022/06/28 00:31:03;;;;;;;9.90;7.80;;;19.00;99.90;;;;;;5439956;23;20238;-90
2022/06/28 00:33:29;;;;;;;8.93;7.80;;;18.90;99.90;;;;;;4992595;28;20196;-90
2022/06/28 00:35:55;;;;;;;7.93;6.95;;;19.00;99.90;;;;;;4992397;28;20219;-92
2022/06/28 00:38:20;;;;;;;10.20;7.88;;;19.00;99.90;;;;;;4992484;28;20180;-90
2022/06/28 00:40:51;;;;;;;8.60;7.32;;;19.00;99.90;;;;;;4992455;28;20180;-91
2022/06/28 00:43:18;;;;;;;10.40;7.63;;;19.00;99.90;;;;;;4992454;28;20175;-91
2022/06/28 00:45:45;;;;;;;8.27;7.38;;;18.90;99.90;;;;;;5008483;28;20199;-90
2022/06/28 00:48:17;;;;;;;10.00;7.75;;;18.90;99.90;;;;;;4989295;28;20192;-91
2022/06/28 00:50:43;;;;;;;8.80;7.68;;;18.80;99.90;;;;;;4973199;28;20181;-90
2022/06/28 00:53:17;;;;;;;10.05;7.80;;;18.80;99.90;;;;;;4988596;28;20266;-91
2022/06/28 00:55:44;;;;;;;9.85;7.93;;;18.70;99.90;;;;;;4996131;28;20195;-92
2022/06/28 00:58:11;;;;;;;8.43;7.45;;;18.70;99.90;;;;;;4996379;28;20191;-91
2022/06/28 01:00:41;;;;;;;9.48;7.93;;;18.70;99.90;;;;;;4996534;28;20661;-91
2022/06/28 01:03:08;;;;;;;9.70;6.95;;;18.80;99.90;;;;;;4996352;28;20602;-89
2022/06/28 01:05:36;;;;;;;7.88;7.03;;;18.80;99.90;;;;;;4995532;28;20200;-90
2022/06/28 01:08:05;;;;;;;8.40;7.18;;;18.70;99.90;;;;;;4979114;28;20192;-91
2022/06/28 01:10:31;;;;;;;9.18;7.78;;;18.70;99.90;;;;;;4976490;28;20204;-91
2022/06/28 01:12:57;;;;;;;9.07;7.57;;;18.70;99.90;;;;;;4976301;28;20188;-91
2022/06/28 01:15:23;;;;;;;8.07;7.28;;;18.70;99.90;;;;;;4995575;28;20243;-91
2022/06/28 01:17:49;;;;;;;10.93;8.02;;;18.80;99.90;;;;;;4995638;28;20634;-91
2022/06/28 01:20:15;;;;;;;8.85;7.32;;;18.80;99.90;;;;;;4978320;28;20194;-90
2022/06/28 01:22:42;;;;;;;9.05;7.45;;;18.90;99.90;;;;;;4984259;28;20355;-91
2022/06/28 01:25:09;;;;;;;8.73;7.30;;;18.80;99.90;;;;;;4984198;28;20175;-89
2022/06/28 01:27:35;;;;;;;13.35;7.75;;;18.80;99.90;;;;;;4995978;28;20172;-89
2022/06/28 01:30:04;;;;;;;8.73;7.22;;;18.80;99.90;;;;;;4995267;28;20671;-91
2022/06/28 01:32:32;;;;;;;9.45;7.70;;;18.80;99.90;;;;;;4995735;28;20282;-91
2022/06/28 01:35:00;;;;;;;12.43;8.32;;;18.80;99.90;;;;;;4995412;28;20705;-91
2022/06/28 01:37:27;;;;;;;11.70;10.30;;;18.80;99.90;;;;;;5003305;28;20234;-91
2022/06/28 01:39:53;;;;;;;10.57;9.35;;;18.70;99.90;;;;;;4995498;28;20184;-90
2022/06/28 01:42:19;;;;;;;11.07;9.40;;;18.60;99.90;;;;;;4995295;28;20239;-89
2022/06/28 01:44:47;;;;;;;10.27;8.88;;;18.60;99.90;;;;;;4995485;28;20226;-90
2022/06/28 01:47:14;;;;;;;10.20;9.07;;;18.60;99.90;;;;;;4994298;28;20203;-89
2022/06/28 01:49:40;;;;;;;11.48;9.10;;;18.60;99.90;;;;;;4995314;28;20691;-90
2022/06/28 01:52:06;;;;;;;9.90;8.93;;;18.50;99.90;;;;;;4995140;28;20191;-90
2022/06/28 01:54:32;;;;;;;10.98;8.57;;;18.50;99.90;;;;;;4994738;28;20645;-91
2022/06/28 01:56:57;;;;;;;11.30;8.48;;;18.50;99.90;;;;;;4994668;28;20199;-91
2022/06/28 01:59:25;;;;;;;10.40;8.90;;;18.50;99.90;;;;;;4995300;28;20180;-90
2022/06/28 02:01:51;;;;;;;12.50;10.13;;;18.50;99.90;;;;;;4994632;28;20184;-90
2022/06/28 02:04:22;;;;;;;9.63;8.63;;;18.40;99.90;;;;;;4992077;28;20176;-92
2022/06/28 02:06:47;;;;;;;13.70;10.10;;;18.40;99.90;;;;;;4994303;28;20679;-91
2022/06/28 02:09:13;;;;;;;12.90;9.50;;;18.40;99.90;;;;;;4994049;28;20218;-88
2022/06/28 02:11:40;;;;;;;10.88;9.77;;;18.40;99.90;;;;;;4994445;28;20183;-91
2022/06/28 02:14:06;;;;;;;10.52;9.43;;;18.30;99.90;;;;;;4994717;28;20188;-91
2022/06/28 02:16:32;;;;;;;14.68;10.70;;;18.30;99.90;;;;;;4992523;28;20200;-91
2022/06/28 02:18:57;;;;;;;11.38;8.73;;;18.30;99.90;;;;;;4994190;28;20183;-91
2022/06/28 02:21:23;;;;;;;10.07;9.05;;;18.20;99.90;;;;;;4994504;28;20184;-89
2022/06/28 02:23:53;;;;;;;12.70;9.52;;;18.20;99.90;;;;;;4994446;28;20207;-91
2022/06/28 02:26:19;;;;;;;11.32;9.57;;;18.20;99.90;;;;;;4994056;28;20295;-90
2022/06/28 02:28:45;;;;;;;11.52;9.63;;;18.20;99.90;;;;;;4994055;28;20322;-91
2022/06/28 02:31:15;;;;;;;13.07;9.88;;;18.20;99.90;;;;;;4993961;28;20730;-91
2022/06/28 02:33:42;;;;;;;10.15;9.02;;;18.20;99.90;;;;;;4986653;28;20185;-91
2022/06/28 02:41:40;;;;;;;10.20;7.82;;;18.10;99.90;;;;;;4995542;28;20315;-90
2022/06/28 02:44:06;;;;;;;8.45;7.43;;;18.10;99.90;;;;;;4986653;28;20188;-90
2022/06/28 02:46:32;;;;;;;9.05;7.07;;;18.10;99.90;;;;;;4994502;28;20219;-90
2022/06/28 02:48:58;;;;;;;8.85;6.55;;;18.10;99.90;;;;;;4993990;28;20203;-91
2022/06/28 02:51:24;;;;;;;9.60;6.78;;;18.10;99.90;;;;;;4993639;28;20202;-91
2022/06/28 02:53:52;;;;;;;10.07;6.53;;;18.00;99.90;;;;;;4993470;28;20180;-90
2022/06/28 02:56:18;;;;;;;8.95;7.70;;;18.00;99.90;;;;;;4993480;28;20300;-90
2022/06/28 02:58:48;;;;;;;8.43;7.38;;;18.10;99.90;;;;;;4993502;28;20275;-90
2022/06/28 03:01:16;;;;;;;8.73;7.15;;;18.00;99.90;;;;;;4993197;28;20214;-90
2022/06/28 03:03:42;;;;;;;10.55;7.63;;;18.00;99.90;;;;;;4991331;28;20187;-90
2022/06/28 03:06:08;;;;;;;9.35;6.53;;;17.90;99.90;;;;;;4986824;28;20342;-90
2022/06/28 03:08:34;;;;;;;10.20;7.10;;;17.90;99.90;;;;;;4980668;28;20275;-90
2022/06/28 03:11:00;;;;;;;9.27;7.18;;;17.80;99.90;;;;;;4993250;28;20667;-88
2022/06/28 03:13:27;;;;;;;8.70;6.63;;;17.80;99.90;;;;;;4985952;28;20679;-90
2022/06/28 03:15:53;;;;;;;7.03;6.05;;;17.70;99.90;;;;;;4978993;28;20287;-89
2022/06/28 03:18:18;;;;;;;7.50;6.35;;;17.70;99.90;;;;;;4992851;28;20238;-90
2022/06/28 03:20:44;;;;;;;7.60;6.28;;;17.70;99.90;;;;;;4996867;28;20187;-90
2022/06/28 03:23:11;;;;;;;10.18;6.85;;;17.70;99.90;;;;;;4988406;28;20185;-90
2022/06/28 03:25:37;;;;;;;6.97;6.03;;;17.70;99.90;;;;;;4990085;28;20207;-91
2022/06/28 03:28:04;;;;;;;9.20;6.75;;;17.70;99.90;;;;;;4984660;28;20212;-88
2022/06/28 03:30:33;;;;;;;8.43;6.32;;;17.60;99.90;;;;;;4994421;28;20679;-90
2022/06/28 03:32:59;;;;;;;7.88;6.65;;;17.60;99.90;;;;;;4992356;28;20270;-90
2022/06/28 03:35:24;;;;;;;10.52;7.35;;;17.60;99.90;;;;;;4997021;28;20215;-89
2022/06/28 03:37:50;;;;;;;8.48;7.00;;;17.70;99.90;;;;;;4993121;28;20190;-89
2022/06/28 03:40:16;;;;;;;9.50;6.50;;;17.60;99.90;;;;;;4992907;28;20270;-90
2022/06/28 03:42:42;;;;;;;10.80;6.75;;;17.60;99.90;;;;;;4993212;28;20267;-91
2022/06/28 03:45:08;;;;;;;8.55;6.65;;;17.60;99.90;;;;;;4993121;28;20294;-90
2022/06/28 03:47:34;;;;;;;7.82;6.30;;;17.60;99.90;;;;;;4992416;28;20302;-90
2022/06/28 03:50:01;;;;;;;9.68;6.47;;;17.60;99.90;;;;;;4992949;28;20660;-90
2022/06/28 03:52:29;;;;;;;8.80;6.38;;;17.70;99.90;;;;;;4992869;28;20171;-90
2022/06/28 03:54:57;;;;;;;7.30;5.88;;;17.70;99.90;;;;;;4991912;28;20234;-88
2022/06/28 03:57:26;;;;;;;10.93;7.07;;;17.70;99.90;;;;;;4988835;28;20621;-89
2022/06/28 03:59:52;;;;;;;8.90;6.45;;;17.70;99.90;;;;;;4992713;28;20179;-89
2022/06/28 04:02:18;;;;;;;8.40;6.38;;;17.70;99.90;;;;;;4992104;28;20594;-91
2022/06/28 04:04:45;;;;;;;8.65;6.03;;;17.70;99.90;;;;;;4992268;28;20214;-89
2022/06/28 04:07:11;;;;;;;11.50;6.97;;;17.70;99.90;;;;;;4992606;28;20262;-91
2022/06/28 04:09:37;;;;;;;7.53;6.43;;;17.70;99.90;;;;;;4992303;28;20602;-90
2022/06/28 04:12:03;;;;;;;9.00;5.90;;;17.70;99.90;;;;;;4992858;28;20176;-90
2022/06/28 04:14:28;;;;;;;8.30;6.30;;;17.70;99.90;;;;;;4993446;28;20172;-90
2022/06/28 04:16:54;;;;;;;8.82;6.68;;;17.70;99.90;;;;;;4992282;28;20621;-88
2022/06/28 04:19:20;;;;;;;10.13;7.00;;;17.70;99.90;;;;;;4992466;28;20188;-90
2022/06/28 04:21:45;;;;;;;7.32;5.95;;;17.70;99.90;;;;;;4993205;28;20219;-88
2022/06/28 04:24:11;;;;;;;9.88;6.80;;;17.70;99.90;;;;;;4991532;28;20222;-90
2022/06/28 04:26:37;;;;;;;8.32;6.28;;;17.70;99.90;;;;;;4991053;28;20208;-91
2022/06/28 04:29:03;;;;;;;9.05;6.30;;;17.70;99.90;;;;;;4992249;28;20636;-89
2022/06/28 04:31:28;;;;;;;8.88;6.30;;;17.70;99.90;;;;;;4993346;28;20283;-91
2022/06/28 04:33:54;;;;;;;7.90;6.78;;;17.70;99.90;;;;;;4991699;28;20214;-90
2022/06/28 04:36:20;;;;;;;8.85;6.60;;;17.70;99.90;;;;;;4992058;28;20195;-90
2022/06/28 04:38:48;;;;;;;9.75;7.10;;;17.70;99.90;;;;;;4988334;28;20224;-89
2022/06/28 04:41:14;;;;;;;8.40;7.22;;;17.70;99.90;;;;;;4991987;28;20230;-91
2022/06/28 04:43:40;;;;;;;9.80;6.82;;;17.70;99.90;;;;;;4992252;28;20180;-90
2022/06/28 04:46:05;;;;;;;13.20;6.95;;;17.70;99.90;;;;;;4991741;28;20211;-91
2022/06/28 04:48:31;;;;;;;10.57;6.97;;;17.70;99.90;;;;;;4991127;28;20180;-92
2022/06/28 04:51:10;;;;;;;8.93;6.78;;;17.70;99.90;;;;;;4992041;28;20187;-90
2022/06/28 04:53:40;;;;;;;11.82;6.50;;;17.70;99.90;;;;;;4972789;28;20304;-91
2022/06/28 04:56:08;;;;;;;9.48;6.45;;;17.70;99.90;;;;;;4991500;28;20215;-90
2022/06/28 04:58:34;;;;;;;7.18;6.40;;;17.80;99.90;;;;;;4991596;28;20188;-90
2022/06/28 05:01:00;;;;;;;11.15;7.25;;;17.80;99.90;;;;;;4991866;28;20179;-93
2022/06/28 05:03:26;;;;;;;10.90;7.00;;;17.80;99.90;;;;;;4991859;28;20195;-91
2022/06/28 05:05:52;;;;;;;9.43;7.03;;;17.70;99.90;;;;;;4983055;28;20299;-91
2022/06/28 05:08:19;;;;;;;10.75;7.32;;;17.70;99.90;;;;;;4991125;28;20168;-91
2022/06/28 05:10:44;;;;;;;13.38;7.10;;;17.70;99.90;;;;;;4972767;28;20691;-91
2022/06/28 05:13:16;;;;;;;9.70;7.32;;;17.70;99.90;;;;;;4986827;28;20180;-90
2022/06/28 05:15:41;;;;;;;8.35;6.78;;;17.70;99.90;;;;;;4985364;28;20208;-90
2022/06/28 05:18:07;;;;;;;11.25;7.78;;;17.60;99.90;;;;;;4991855;28;20542;-90
2022/06/28 05:20:33;;;;;;;7.95;6.70;;;17.60;99.90;;;;;;4989560;28;20196;-89
2022/06/28 05:22:59;;;;;;;9.43;7.32;;;17.60;99.90;;;;;;4991559;28;20168;-91
2022/06/28 05:25:25;;;;;;;8.27;7.10;;;17.60;99.90;;;;;;4987973;28;20739;-89
2022/06/28 05:27:52;;;;;;;10.00;7.60;;;17.60;99.90;;;;;;4986119;28;20183;-91
2022/06/28 05:30:19;;;;;;;13.73;8.35;;;17.60;99.90;;;;;;4988481;28;20197;-91
2022/06/28 05:32:45;;;;;;;13.32;8.45;;;17.60;99.90;;;;;;4986260;28;20310;-90
2022/06/28 05:35:10;;;;;;;9.00;7.15;;;17.60;99.90;;;;;;4991973;28;20282;-92
2022/06/28 05:37:36;;;;;;;9.70;7.70;;;17.60;99.90;;;;;;4997149;28;20194;-91
2022/06/28 05:40:03;;;;;;;10.40;6.78;;;17.60;99.90;;;;;;4991991;28;20640;-92
2022/06/28 05:42:29;;;;;;;8.38;7.05;;;17.60;99.90;;;;;;4993517;28;20179;-93
2022/06/28 05:44:55;;;;;;;8.40;6.93;;;17.70;99.90;;;;;;4994198;28;20226;-91
2022/06/28 05:47:21;;;;;;;7.95;7.15;;;17.80;99.90;;;;;;5002200;28;20232;-90
2022/06/28 05:49:46;;;;;;;8.98;7.07;;;17.80;99.90;;;;;;4995383;28;20290;-89
2022/06/28 05:52:12;;;;;;;13.25;7.38;;;17.80;99.90;;;;;;4987937;28;20706;-89
2022/06/28 05:54:38;;;;;;;8.88;7.15;;;17.80;99.90;;;;;;4976719;28;20236;-90
2022/06/28 05:57:04;;;;;;;7.72;6.90;;;17.70;99.90;;;;;;4994848;28;20197;-91
2022/06/28 05:59:32;;;;;;;8.00;6.97;;;17.70;99.90;;;;;;4995017;28;20266;-88
2022/06/28 06:01:57;;;;;;;11.52;7.43;;;17.70;99.90;;;;;;4994403;28;20267;-91
2022/06/28 06:04:25;;;;;;;11.50;7.50;;;17.70;99.90;;;;;;4994756;28;20318;-90
2022/06/28 06:06:51;;;;;;;12.10;7.80;;;17.70;99.90;;;;;;4994142;28;20583;-89
2022/06/28 06:09:17;;;;;;;8.68;6.93;;;17.70;99.90;;;;;;4993884;28;20206;-90
2022/06/28 06:11:44;;;;;;;8.68;7.45;;;17.70;99.90;;;;;;4994227;28;20172;-90
2022/06/28 06:14:10;;;;;;;9.98;7.28;;;17.60;99.90;;;;;;4995438;28;20156;-91
2022/06/28 06:16:36;;;;;;;8.93;6.45;;;17.60;99.90;;;;;;4995175;28;20224;-91
2022/06/28 06:19:02;;;;;;;10.13;7.68;;;17.60;99.90;;;;;;4994162;28;20530;-90
2022/06/28 06:21:28;;;;;;;10.18;7.90;;;17.70;99.90;;;;;;4995460;28;20186;-90
2022/06/28 06:23:54;;;;;;;10.77;7.18;;;17.80;99.90;;;;;;4993998;28;20184;-89
2022/06/28 06:26:20;;;;;;;9.65;7.03;;;17.80;99.90;;;;;;4992007;28;20754;-90
2022/06/28 06:28:46;;;;;;;11.43;8.02;;;17.80;99.90;;;;;;4975502;28;20165;-90
2022/06/28 06:31:12;;;;;;;8.80;6.05;;;17.90;99.90;;;;;;4993103;28;20273;-90
2022/06/28 06:33:38;;;;;;;7.68;6.45;;;17.70;99.90;;;;;;4993078;28;20183;-91
2022/06/28 06:36:04;;;;;;;8.70;7.10;;;17.80;99.90;;;;;;4993242;28;20287;-89
2022/06/28 06:38:30;;;;;;;9.30;6.53;;;17.80;99.90;;;;;;4992777;28;20294;-90
2022/06/28 06:40:58;;;;;;;9.60;7.75;;;17.80;99.90;;;;;;4975404;28;20574;-91
2022/06/28 06:43:27;;;;;;;7.05;6.15;;;17.80;99.90;;;;;;4986764;28;20876;-91
2022/06/28 06:45:56;;;;;;;9.43;6.20;;;17.80;99.90;;;;;;4994053;28;20238;-89
2022/06/28 06:48:23;;;;;;;7.80;5.63;;;17.80;99.90;;;;;;4992422;28;20457;-90
2022/06/28 06:50:49;;;;;;;7.60;6.20;;;17.80;99.90;;;;;;4987763;28;20208;-89
2022/06/28 06:53:15;;;;;;;9.63;6.60;;;17.90;99.90;;;;;;4982450;28;20176;-91
2022/06/28 06:55:41;;;;;;;7.13;6.32;;;17.80;99.90;;;;;;4990568;28;20214;-92
2022/06/28 06:58:07;;;;;;;8.77;5.97;;;17.80;99.90;;;;;;4992761;28;20648;-89
2022/06/28 07:00:34;;;;;;;9.48;6.50;;;17.90;99.90;;;;;;4993418;28;20187;-91
2022/06/28 07:03:02;;;;;;;7.95;6.40;;;17.90;99.90;;;;;;4979482;28;20180;-89
2022/06/28 07:05:29;;;;;;;8.60;6.88;;;18.00;99.90;;;;;;4992487;28;20207;-91
2022/06/28 07:07:55;;;;;;;7.70;6.00;;;18.20;99.90;;;;;;4992634;28;20272;-92
2022/06/28 07:10:20;;;;;;;7.30;5.50;;;18.30;99.90;;;;;;4992707;28;20618;-91
2022/06/28 07:12:46;;;;;;;7.43;5.88;;;18.40;99.90;;;;;;4993526;28;20183;-90
2022/06/28 07:15:12;;;;;;;9.52;5.90;;;18.50;99.90;;;;;;4989112;28;20555;-89
2022/06/28 07:17:38;;;;;;;9.60;5.28;;;18.50;99.90;;;;;;4992166;28;20179;-92
2022/06/28 07:20:04;;;;;;;8.02;5.57;;;18.60;99.90;;;;;;4992828;28;20186;-92
2022/06/28 07:22:30;;;;;;;7.75;4.88;;;18.60;99.90;;;;;;4992759;28;20242;-90
2022/06/28 07:24:56;;;;;;;6.50;4.13;;;18.60;99.90;;;;;;4992483;28;20652;-91
2022/06/28 07:27:23;;;;;;;6.75;4.55;;;18.60;99.90;;;;;;4993519;28;20290;-93
2022/06/28 07:29:49;;;;;;;8.13;4.65;;;18.70;99.90;;;;;;4993908;28;20210;-92
2022/06/28 07:32:15;;;;;;;6.13;3.80;;;18.90;99.90;;;;;;4994469;28;20223;-92
2022/06/28 07:34:41;;;;;;;8.88;4.22;;;19.00;99.90;;;;;;4998571;28;20191;-91
2022/06/28 07:37:07;;;;;;;6.25;3.53;;;19.00;99.90;;;;;;4992973;28;20200;-91
2022/06/28 07:39:33;;;;;;;7.93;4.65;;;19.10;99.90;;;;;;4992518;28;20184;-92
2022/06/28 07:41:59;;;;;;;5.75;3.42;;;19.30;99.90;;;;;;4992725;28;20199;-94
2022/06/28 07:44:26;;;;;;;5.80;3.38;;;19.60;99.90;;;;;;4992315;28;20195;-91
2022/06/28 07:46:52;;;;;;;5.22;3.33;;;19.70;99.90;;;;;;4992622;28;20503;-91
2022/06/28 07:49:18;;;;;;;4.88;3.22;;;19.80;99.90;;;;;;4991548;28;20230;-90
2022/06/28 07:54:28;;;;;;;4.93;2.90;;;19.80;99.90;;;;;;5000493;28;20227;-91
2022/06/28 07:57:06;;;;;;;7.00;3.20;;;19.70;99.90;;;;;;4991122;28;20227;-91
2022/06/28 07:59:32;;;;;;;6.68;2.85;;;19.80;99.90;;;;;;4974457;28;20172;-91
2022/06/28 08:01:58;;;;;;;4.32;2.85;;;20.10;99.90;;;;;;4990453;28;20546;-91
2022/06/28 08:04:24;;;;;;;4.13;2.33;;;20.20;99.90;;;;;;4994232;28;20255;-92
2022/06/28 08:06:52;;;;;;;3.63;2.20;;;20.40;99.90;;;;;;4993928;28;20199;-90
2022/06/28 08:09:18;;;;;;;5.25;2.97;;;20.70;99.90;;;;;;4994098;28;20258;-91
2022/06/28 08:11:47;;;;;;;4.18;2.08;;;20.90;99.90;;;;;;4993808;28;20180;-91
2022/06/28 08:14:14;;;;;;;2.40;1.75;;;21.10;99.70;;;;;;4994123;28;20172;-92
2022/06/28 08:16:39;;;;;;;3.28;2.33;;;21.10;98.80;;;;;;4993449;28;20195;-90
2022/06/28 08:19:05;;;;;;;5.03;2.10;;;21.20;98.50;;;;;;4993771;28;20187;-92
2022/06/28 08:21:31;;;;;;;4.05;2.00;;;21.20;98.60;;;;;;4987692;28;20191;-90
2022/06/28 08:23:57;;;;;;;5.15;2.10;;;21.20;98.30;;;;;;4993150;28;20175;-90
2022/06/28 08:26:22;;;;;;;2.58;1.83;;;21.40;98.20;;;;;;4993365;28;20689;-91
2022/06/28 08:28:49;;;;;;;3.92;2.00;;;21.50;98.10;;;;;;4992955;28;20179;-90
2022/06/28 08:31:15;;;;;;;4.15;1.77;;;21.50;98.10;;;;;;4992212;28;20220;-91
2022/06/28 08:33:41;;;;;;;3.17;2.00;;;21.70;97.80;;;;;;4992748;28;20275;-90
2022/06/28 08:36:08;;;;;;;4.80;1.83;;;21.90;96.40;;;;;;4990078;28;20662;-90
2022/06/28 08:38:33;;;;;;;2.55;1.60;;;21.70;96.80;;;;;;4989236;28;20267;-93
2022/06/28 08:41:02;;;;;;;2.30;1.33;;;21.50;97.00;;;;;;4990339;28;20207;-90
2022/06/28 08:43:31;;;;;;;3.90;1.20;;;21.20;96.90;;;;;;4992834;28;20183;-89
2022/06/28 08:45:57;;;;;;;2.72;1.20;;;21.00;95.40;;;;;;4992705;28;20676;-91
2022/06/28 08:48:31;;;;;;;4.10;1.23;;;21.00;95.90;;;;;;4987865;28;20192;-91
2022/06/28 08:51:07;;;;;;;2.58;1.58;;;21.10;94.70;;;;;;4986333;28;20203;-90
2022/06/28 08:53:35;;;;;;;3.33;1.40;;;21.40;95.10;;;;;;4992526;28;20180;-91
2022/06/28 08:56:02;;;;;;;2.08;1.17;;;21.50;94.60;;;;;;4993663;28;20214;-91
2022/06/28 08:58:28;;;;;;;2.50;1.27;;;21.30;94.00;;;;;;4992560;28;20180;-92
2022/06/28 09:00:54;;;;;;;2.50;1.20;;;21.00;94.30;;;;;;4992515;28;20187;-90
2022/06/28 09:03:20;;;;;;;1.95;1.30;;;20.60;94.80;;;;;;5008446;28;20183;-91
2022/06/28 09:05:47;;;;;;;3.67;1.48;;;20.60;94.40;;;;;;4993996;28;20208;-92
2022/06/28 09:08:13;;;;;;;3.10;1.10;;;20.90;95.00;;;;;;5001059;28;20183;-90
2022/06/28 09:10:39;;;;;;;1.95;0.90;;;21.10;92.60;;;;;;4992584;28;20283;-89
2022/06/28 09:13:13;;;;;;;3.72;1.23;;;21.00;92.90;;;;;;4993991;28;20533;-91
2022/06/28 09:16:05;;;;;;;2.42;1.00;;;21.10;94.10;;;;;;4996387;28;20200;-92
2022/06/28 09:18:37;;;;;;;2.50;1.33;;;21.50;94.30;;;;;;4992739;28;20199;-91
2022/06/28 09:21:09;;;;;;;1.48;1.17;;;21.90;92.60;;;;;;4996228;28;20168;-91
2022/06/28 09:23:40;;;;;;;3.35;1.10;;;21.90;92.60;;;;;;4995976;28;20195;-90
2022/06/28 09:26:25;;;;;;;1.90;1.20;;;21.70;92.90;;;;;;5107006;27;20866;-86
2022/06/28 09:28:52;;;;;;;3.88;1.20;;;21.70;92.70;;;;;;5089614;28;20181;-86
2022/06/28 09:31:26;;;;;;;4.72;1.05;;;21.90;92.70;;;;;;5118564;28;20534;-86
2022/06/28 09:34:03;;;;;;;1.75;1.20;;;22.20;91.90;;;;;;5074116;28;20181;-87
2022/06/28 09:36:34;;;;;;;3.85;1.13;;;22.40;91.50;;;;;;5070447;28;20553;-87
2022/06/28 09:39:15;;;;;;;2.85;0.90;;;22.00;91.80;;;;;;5085439;28;20543;-86
2022/06/28 09:41:46;;;;;;;4.93;1.20;;;22.00;93.10;;;;;;5109559;28;20198;-87
2022/06/28 09:44:12;;;;;;;2.08;1.02;;;22.00;93.50;;;;;;5088882;28;20209;-86
2022/06/28 09:46:39;;;;;;;3.25;1.02;;;21.90;93.60;;;;;;5103433;28;20637;-88
2022/06/28 09:49:07;;;;;;;3.90;1.10;;;22.00;93.20;;;;;;5094282;28;20176;-87
2022/06/28 09:51:35;;;;;;;3.22;1.10;;;22.00;92.30;;;;;;5091705;28;20173;-85
2022/06/28 09:54:07;;;;;;;1.60;0.93;;;22.10;92.40;;;;;;5101692;28;20222;-86
2022/06/28 09:56:43;;;;;;;3.20;1.08;;;22.20;91.70;;;;;;5089269;28;20189;-86
2022/06/28 09:59:10;;;;;;;2.47;1.40;;;22.10;92.00;;;;;;5106562;28;20238;-86
2022/06/28 10:01:37;;;;;;;3.83;1.35;;;22.10;91.50;;;;;;5084895;28;20279;-85
2022/06/28 10:04:06;;;;;;;2.58;1.00;;;22.20;91.10;;;;;;5088306;28;20181;-84
2022/06/28 10:06:33;;;;;;;4.07;1.42;;;22.20;92.80;;;;;;5124335;27;20181;-87
2022/06/28 10:08:59;;;;;;;2.00;1.20;;;22.30;91.40;;;;;;5088856;28;20188;-87
2022/06/28 10:11:25;;;;;;;3.67;1.20;;;22.40;91.70;;;;;;5097694;28;20201;-84
2022/06/28 10:17:05;;;;;;;2.65;1.20;;;23.10;92.60;;;;;;5071511;28;20253;-86
2022/06/28 10:19:33;;;;;;;2.30;1.23;;;23.40;91.60;;;;;;5110025;28;20262;-87
2022/06/28 10:22:01;;;;;;;3.28;1.05;;;23.50;90.10;;;;;;5101124;28;20173;-86
2022/06/28 10:24:56;;;;;;;4.63;1.38;;;23.70;91.70;;;;;;5069345;28;20320;-87
2022/06/28 10:27:25;;;;;;;1.95;1.10;;;23.90;91.60;;;;;;5073591;28;20191;-89
2022/06/28 10:30:00;;;;;;;2.72;1.10;;;24.20;90.90;;;;;;5108114;28;20211;-86
2022/06/28 10:32:42;;;;;;;2.45;1.08;;;24.40;90.20;;;;;;5094099;28;20621;-87
2022/06/28 10:35:08;;;;;;;2.47;0.80;;;24.40;90.60;;;;;;5090402;28;20180;-87
2022/06/28 10:38:07;;;;;;;5.38;1.27;;;24.50;90.40;;;;;;5080129;28;20221;-90
2022/06/28 10:40:41;;;;;;;5.60;1.17;;;24.60;87.00;;;;;;5096296;28;20165;-88
2022/06/28 10:43:07;;;;;;;1.95;1.10;;;24.90;90.10;;;;;;5082227;28;20193;-85
2022/06/28 10:46:02;;;;;;;4.20;0.75;;;25.00;89.20;;;;;;5086660;28;20216;-87
2022/06/28 10:48:30;;;;;;;2.17;1.00;;;25.20;87.80;;;;;;5094909;28;20551;-86
2022/06/28 10:50:57;;;;;;;2.15;1.00;;;25.30;87.10;;;;;;5088230;28;20177;-86
2022/06/28 10:53:25;;;;;;;4.80;1.05;;;25.40;89.80;;;;;;5076086;28;20498;-85
2022/06/28 10:56:15;;;;;;;2.40;0.98;;;25.50;90.00;;;;;;5077833;28;20615;-86
2022/06/28 10:59:02;;;;;;;1.73;0.90;;;25.60;87.30;;;;;;5081898;28;20208;-87
2022/06/28 11:01:41;;;;;;;3.20;0.85;;;25.70;87.60;;;;;;5085596;28;20246;-86
2022/06/28 11:04:21;;;;;;;1.33;0.80;;;25.90;86.60;;;;;;5088940;28;20502;-88
2022/06/28 11:06:48;;;;;;;5.53;1.00;;;25.70;83.10;;;;;;5089532;28;20193;-86
2022/06/28 11:09:35;;;;;;;3.55;1.05;;;25.40;83.70;;;;;;5060274;28;20185;-87
2022/06/28 11:12:38;;;;;;;2.67;0.93;;;25.20;84.90;;;;;;5078822;28;20180;-86
2022/06/28 11:15:35;;;;;;;3.53;1.33;;;24.90;86.30;;;;;;5095161;28;20180;-87
2022/06/28 11:18:20;;;;;;;2.38;1.08;;;24.90;87.60;;;;;;5071461;28;20178;-86
2022/06/28 11:20:46;;;;;;;3.47;1.15;;;24.50;86.10;;;;;;5078275;28;20181;-87
2022/06/28 11:23:25;;;;;;;1.85;0.95;;;24.30;86.00;;;;;;5074247;28;20208;-86
2022/06/28 11:28:54;;;;;;;2.15;0.80;;;24.10;87.40;;;;;;5078716;28;20196;-88
2022/06/28 11:31:20;;;;;;;2.50;1.10;;;24.10;87.90;;;;;;5076045;28;20173;-86
2022/06/28 11:33:47;;;;;;;2.05;0.90;;;23.80;87.40;;;;;;5074731;28;20305;-86
2022/06/28 11:36:33;;;;;;;4.07;1.10;;;23.40;88.70;;;;;;5075889;28;20179;-86
2022/06/28 11:39:19;;;;;;;2.67;0.85;;;23.60;90.00;;;;;;5090183;28;20188;-86
2022/06/28 11:41:49;;;;;;;2.97;0.90;;;23.60;85.90;;;;;;5075037;28;20180;-86
2022/06/28 11:44:16;;;;;;;3.38;1.00;;;23.60;87.30;;;;;;5074855;28;20182;-87
2022/06/28 11:46:42;;;;;;;2.97;1.00;;;23.90;90.00;;;;;;5074037;28;20242;-87
2022/06/28 11:49:08;;;;;;;1.38;0.65;;;24.30;85.90;;;;;;5093426;28;20630;-86
2022/06/28 11:51:34;;;;;;;7.18;0.80;;;24.60;86.90;;;;;;5078156;28;20182;-86
2022/06/28 11:54:05;;;;;;;2.85;1.00;;;25.10;89.30;;;;;;5073738;28;20213;-86
2022/06/28 11:56:44;;;;;;;2.58;0.90;;;25.30;84.80;;;;;;5074246;28;20622;-86
2022/06/28 11:59:10;;;;;;;2.05;1.00;;;25.50;85.90;;;;;;5073927;28;20193;-86
2022/06/28 12:01:40;;;;;;;2.35;0.82;;;25.40;85.70;;;;;;5073973;28;20291;-86
2022/06/28 12:04:07;;;;;;;2.55;0.90;;;25.30;84.90;;;;;;5076714;28;20188;-86
2022/06/28 12:06:34;;;;;;;3.08;1.10;;;25.20;87.00;;;;;;5091865;28;20238;-86
2022/06/28 12:09:06;;;;;;;3.80;0.98;;;25.30;84.80;;;;;;5082417;28;20192;-84
2022/06/28 12:11:35;;;;;;;1.58;0.88;;;25.50;84.90;;;;;;5106936;28;20181;-85
2022/06/28 12:14:05;;;;;;;1.77;0.90;;;25.90;84.70;;;;;;5075174;28;20686;-86
2022/06/28 12:16:32;;;;;;;3.15;1.00;;;26.00;81.60;;;;;;5074394;28;20576;-86
2022/06/28 12:18:59;;;;;;;2.55;0.90;;;26.00;83.60;;;;;;5083511;28;20236;-86
2022/06/28 12:21:25;;;;;;;2.38;0.80;;;26.00;82.10;;;;;;5072524;28;20185;-87
2022/06/28 12:23:53;;;;;;;4.10;0.95;;;26.10;81.50;;;;;;5073602;28;20620;-88
2022/06/28 12:26:20;;;;;;;1.98;0.80;;;26.10;81.30;;;;;;5075211;28;20326;-86
2022/06/28 12:28:48;;;;;;;1.35;0.77;;;25.90;83.30;;;;;;5087321;28;20622;-85
2022/06/28 12:31:13;;;;;;;2.38;0.80;;;25.60;80.10;;;;;;5087510;28;20181;-85
2022/06/28 12:33:39;;;;;;;1.67;0.80;;;25.40;82.50;;;;;;5072717;28;20242;-85
2022/06/28 12:36:05;;;;;;;2.55;1.00;;;25.00;83.00;;;;;;5064181;28;20208;-85
2022/06/28 12:38:33;;;;;;;6.15;0.85;;;24.70;82.30;;;;;;5090074;28;20181;-87
2022/06/28 12:40:59;;;;;;;3.38;0.82;;;24.70;86.80;;;;;;5092769;28;20174;-86
2022/06/28 12:43:24;;;;;;;4.10;0.90;;;24.90;84.90;;;;;;5053145;28;20196;-85
2022/06/28 12:45:50;;;;;;;4.18;0.85;;;25.30;83.90;;;;;;5081530;28;20215;-87
2022/06/28 12:48:19;;;;;;;1.80;0.77;;;25.70;83.20;;;;;;5074008;28;20181;-84
2022/06/28 12:50:45;;;;;;;3.10;0.73;;;26.10;83.50;;;;;;5074076;28;20342;-88
2022/06/28 12:53:11;;;;;;;2.92;1.10;;;26.30;82.30;;;;;;5073792;28;20650;-87
2022/06/28 12:55:36;;;;;;;1.30;0.75;;;26.70;79.30;;;;;;5080573;28;20189;-87
2022/06/28 12:58:03;;;;;;;2.25;0.75;;;26.70;77.10;;;;;;5075064;28;20227;-88
2022/06/28 13:00:29;;;;;;;2.97;0.80;;;26.80;81.60;;;;;;5072457;28;20177;-86
2022/06/28 13:02:54;;;;;;;1.83;0.63;;;27.10;78.90;;;;;;5072217;28;20185;-81
2022/06/28 13:05:22;;;;;;;6.20;1.05;;;27.20;78.10;;;;;;5076648;28;20220;-84